Time;durP1;ratioP1;P1;durP2;ratioP2;P2;SDS_P1;SDS_P2;PMS_P1;PMS_P2;Temp;Humidity;BMP_temperature;BMP_pressure;BME280_temperature;BME280_humidity;BME280_pressure;Samples;Min_cycle;Max_cycle;Signal;HPM_P1;HPM_P2
2022/08/14 00:00:51;;;;;;;3.83;2.96;;;;;;;27.20;41.27;100428.12;469946;113;923498;-74
2022/08/14 00:01:54;;;;;;;3.52;2.72;;;;;;;27.19;41.27;100427.29;470727;112;922590;-74
2022/08/14 00:02:59;;;;;;;3.84;2.76;;;;;;;27.20;41.25;100428.95;470883;112;922693;-74
2022/08/14 00:04:03;;;;;;;3.00;2.75;;;;;;;27.20;41.25;100425.31;471039;112;923552;-74
2022/08/14 00:05:11;;;;;;;3.36;3.06;;;;;;;27.19;41.25;100423.67;465182;112;923120;-75
2022/08/14 00:06:14;;;;;;;3.24;2.92;;;;;;;27.19;41.25;100432.89;462519;114;922714;-74
2022/08/14 00:07:19;;;;;;;2.89;2.67;;;;;;;27.19;41.25;100432.06;459783;114;922626;-75
2022/08/14 00:08:22;;;;;;;4.82;3.40;;;;;;;27.19;41.28;100432.06;462813;114;923331;-74
2022/08/14 00:09:27;;;;;;;5.33;3.19;;;;;;;27.19;41.20;100432.06;459724;114;922784;-74
2022/08/14 00:10:32;;;;;;;3.14;2.89;;;;;;;27.19;41.21;100437.66;462251;114;922663;-75
2022/08/14 00:11:37;;;;;;;3.27;2.98;;;;;;;27.19;41.21;100434.86;459789;114;922754;-74
2022/08/14 00:12:45;;;;;;;4.11;3.38;;;;;;;27.18;41.21;100436.83;462030;114;922932;-74
2022/08/14 00:13:50;;;;;;;3.43;3.13;;;;;;;27.18;41.18;100436.04;461090;114;922646;-75
2022/08/14 00:14:55;;;;;;;4.21;2.86;;;;;;;27.19;41.19;100437.66;461977;114;922662;-74
2022/08/14 00:16:00;;;;;;;4.65;3.19;;;;;;;27.19;41.18;100434.86;458097;115;930653;-75
2022/08/14 00:17:04;;;;;;;6.71;3.31;;;;;;;27.18;41.15;100434.03;458398;115;922761;-75
2022/08/14 00:18:09;;;;;;;4.01;3.32;;;;;;;27.18;41.15;100439.64;458264;115;922682;-74
2022/08/14 00:19:14;;;;;;;3.67;3.08;;;;;;;27.19;41.13;100434.86;457801;115;930557;-75
2022/08/14 00:20:24;;;;;;;7.87;3.15;;;;;;;27.18;41.13;100438.84;458023;115;922721;-75
2022/08/14 00:21:29;;;;;;;3.68;3.08;;;;;;;27.18;41.12;100436.04;456784;115;922863;-75
2022/08/14 00:22:34;;;;;;;3.66;3.08;;;;;;;27.18;41.13;100447.23;458275;115;922779;-75
2022/08/14 00:23:40;;;;;;;4.38;3.26;;;;;;;27.16;41.10;100438.33;455266;115;922846;-74
2022/08/14 00:24:44;;;;;;;3.16;2.95;;;;;;;27.17;41.10;100442.78;458275;115;922785;-74
2022/08/14 00:25:50;;;;;;;3.84;3.32;;;;;;;27.17;41.12;100448.38;458219;115;923175;-75
2022/08/14 00:26:57;;;;;;;3.40;3.10;;;;;;;27.15;41.09;100440.30;457318;115;922637;-74
2022/08/14 00:28:04;;;;;;;4.30;3.10;;;;;;;27.15;41.11;100436.68;457937;115;922682;-74
2022/08/14 00:29:07;;;;;;;4.14;3.45;;;;;;;27.15;41.14;100439.48;458193;115;923231;-74
2022/08/14 00:30:12;;;;;;;3.56;3.27;;;;;;;27.15;41.13;100431.91;458188;115;930804;-74
2022/08/14 00:31:17;;;;;;;3.60;3.30;;;;;;;27.16;41.14;100436.36;461943;113;930486;-75
2022/08/14 00:32:21;;;;;;;3.25;2.95;;;;;;;27.15;41.13;100439.48;462458;114;923225;-74
2022/08/14 00:33:27;;;;;;;3.19;2.98;;;;;;;27.15;41.14;100442.28;459548;114;922779;-74
2022/08/14 00:34:32;;;;;;;3.91;2.98;;;;;;;27.16;41.14;100443.94;463344;113;922692;-73
2022/08/14 00:35:41;;;;;;;3.37;3.08;;;;;;;27.15;41.17;100440.30;463163;113;922629;-74
2022/08/14 00:36:44;;;;;;;3.94;2.91;;;;;;;27.15;41.20;100440.30;463249;113;922669;-74
2022/08/14 00:37:49;;;;;;;5.55;2.89;;;;;;;27.15;41.22;100433.88;465927;113;922923;-75
2022/08/14 00:38:54;;;;;;;3.57;3.28;;;;;;;27.14;41.21;100444.25;466309;113;922796;-74
2022/08/14 00:39:59;;;;;;;4.35;3.09;;;;;;;27.14;41.25;100440.63;466402;113;922617;-74
2022/08/14 00:41:05;;;;;;;4.76;3.16;;;;;;;27.14;41.25;100441.45;466261;113;922503;-73
2022/08/14 00:42:08;;;;;;;3.89;3.05;;;;;;;27.14;41.22;100443.42;466259;113;923477;-75
2022/08/14 00:43:14;;;;;;;4.22;3.42;;;;;;;27.13;41.28;100438.97;463177;113;923323;-75
2022/08/14 00:44:17;;;;;;;3.74;2.79;;;;;;;27.14;41.21;100440.63;466404;113;922592;-74
2022/08/14 00:45:22;;;;;;;3.73;3.07;;;;;;;27.13;41.19;100439.80;463143;113;922702;-74
2022/08/14 00:46:27;;;;;;;3.54;3.17;;;;;;;27.14;41.19;100440.63;466220;113;922634;-74
2022/08/14 00:47:34;;;;;;;3.81;3.32;;;;;;;27.13;41.21;100447.37;465683;113;922642;-74
2022/08/14 00:48:39;;;;;;;3.64;2.96;;;;;;;27.13;41.22;100439.80;460272;113;922689;-74
2022/08/14 00:49:44;;;;;;;4.38;3.06;;;;;;;27.13;41.25;100438.97;447207;118;923102;-74
2022/08/14 00:50:48;;;;;;;3.22;2.94;;;;;;;27.12;41.25;100442.95;447684;116;922741;-74
2022/08/14 00:51:51;;;;;;;3.21;2.91;;;;;;;27.12;41.27;100440.16;456136;116;930762;-74
2022/08/14 00:52:55;;;;;;;3.75;3.39;;;;;;;27.12;41.29;100442.95;456163;116;922651;-75
2022/08/14 00:53:58;;;;;;;3.74;3.04;;;;;;;27.11;41.28;100442.12;456138;116;923284;-75
2022/08/14 00:55:04;;;;;;;4.12;2.99;;;;;;;27.12;41.29;100434.55;456208;116;922702;-75
2022/08/14 00:56:10;;;;;;;3.51;2.83;;;;;;;27.12;41.31;100440.16;455530;116;922661;-75
2022/08/14 00:57:15;;;;;;;5.72;3.33;;;;;;;27.11;41.35;100436.53;456395;116;923039;-75
2022/08/14 00:58:31;;;;;;;3.88;3.12;;;;;;;27.10;41.30;100437.67;456830;116;922694;-74
2022/08/14 00:59:35;;;;;;;3.28;2.99;;;;;;;27.10;41.33;100434.88;456687;116;922706;-73
2022/08/14 01:00:39;;;;;;;3.27;2.82;;;;;;;27.10;41.34;100434.05;456742;116;922635;-74
2022/08/14 01:01:47;;;;;;;3.57;2.74;;;;;;;27.09;41.34;100437.99;455568;116;922681;-73
2022/08/14 01:02:52;;;;;;;3.07;2.76;;;;;;;27.08;41.34;100427.95;456286;116;922656;-73
2022/08/14 01:03:57;;;;;;;3.45;3.05;;;;;;;27.08;41.38;100430.74;456330;116;922687;-73
2022/08/14 01:05:01;;;;;;;3.24;2.92;;;;;;;27.07;41.39;100429.12;456318;116;930542;-74
2022/08/14 01:06:07;;;;;;;4.34;3.21;;;;;;;27.08;41.37;100430.74;456372;116;922660;-73
2022/08/14 01:07:11;;;;;;;3.86;2.73;;;;;;;27.06;41.36;100430.27;456318;116;922668;-74
2022/08/14 01:08:21;;;;;;;4.11;2.87;;;;;;;27.06;41.36;100430.27;456326;116;922754;-74
2022/08/14 01:09:28;;;;;;;4.14;3.01;;;;;;;27.06;41.39;100431.09;445386;118;922733;-74
2022/08/14 01:10:50;;;;;;;3.96;3.12;;;;;;;27.05;41.40;100434.21;448424;116;922697;-75
2022/08/14 01:11:53;;;;;;;4.83;3.06;;;;;;;27.04;41.38;100426.96;456344;116;922706;-74
2022/08/14 01:12:58;;;;;;;4.08;2.91;;;;;;;27.02;41.38;100430.08;455221;116;922678;-75
2022/08/14 01:14:02;;;;;;;3.36;3.04;;;;;;;27.02;41.41;100427.28;456518;116;922608;-73
2022/08/14 01:15:07;;;;;;;3.59;3.17;;;;;;;27.01;41.43;100428.46;451168;116;922820;-73
2022/08/14 01:16:15;;;;;;;3.06;2.74;;;;;;;27.01;41.43;100439.66;448479;118;923105;-74
2022/08/14 01:17:22;;;;;;;3.39;2.78;;;;;;;27.01;41.47;100442.45;448489;118;923576;-73
2022/08/14 01:21:15;;;;;;;3.33;2.81;;;;;;;26.98;41.46;100435.52;445853;118;922778;-74
2022/08/14 01:22:19;;;;;;;4.66;2.97;;;;;;;26.97;41.47;100439.47;448488;118;922660;-74
2022/08/14 01:23:23;;;;;;;3.80;2.61;;;;;;;26.94;41.26;100436.51;448627;118;923109;-74
2022/08/14 01:24:26;;;;;;;7.36;3.51;;;;;;;26.94;41.26;100436.51;448673;118;930540;-74
2022/08/14 01:25:31;;;;;;;3.17;2.85;;;;;;;26.94;41.52;100434.53;447768;118;922650;-75
2022/08/14 01:26:35;;;;;;;3.02;2.72;;;;;;;26.93;41.54;100438.48;448627;118;923793;-73
2022/08/14 01:27:43;;;;;;;5.71;2.93;;;;;;;26.92;41.52;100434.03;448474;118;922650;-74
2022/08/14 01:28:51;;;;;;;3.54;2.87;;;;;;;26.91;41.53;100437.97;445906;118;922649;-74
2022/08/14 01:29:56;;;;;;;2.96;2.63;;;;;;;26.91;41.53;100439.95;451327;116;923230;-74
2022/08/14 01:31:05;;;;;;;3.71;2.89;;;;;;;26.90;41.53;100443.92;451222;116;922801;-74
2022/08/14 01:32:08;;;;;;;4.53;2.97;;;;;;;26.89;41.54;100440.30;448550;118;922675;-73
2022/08/14 01:33:13;;;;;;;3.79;2.75;;;;;;;26.89;41.58;100437.50;448674;118;922628;-74
2022/08/14 01:34:16;;;;;;;3.06;2.66;;;;;;;26.89;41.58;100442.27;448747;116;923052;-74
2022/08/14 01:35:21;;;;;;;3.17;2.91;;;;;;;26.89;41.55;100437.50;448503;118;922703;-74
2022/08/14 01:36:33;;;;;;;3.81;2.83;;;;;;;26.88;41.60;100435.02;448528;118;922638;-74
2022/08/14 01:37:36;;;;;;;3.29;3.01;;;;;;;26.87;41.54;100434.19;448182;118;922666;-74
2022/08/14 01:38:44;;;;;;;4.57;2.56;;;;;;;26.87;41.53;100439.78;448526;118;922506;-74
2022/08/14 01:39:53;;;;;;;6.25;3.01;;;;;;;26.87;41.53;100439.78;448541;118;922746;-74
2022/08/14 01:40:57;;;;;;;3.09;2.83;;;;;;;26.89;41.54;100436.67;448495;118;922712;-74
2022/08/14 01:42:00;;;;;;;5.31;2.94;;;;;;;26.88;41.53;100440.61;448694;118;922714;-75
2022/08/14 01:43:13;;;;;;;2.74;2.49;;;;;;;26.87;41.51;100438.92;448743;118;922758;-74
2022/08/14 01:44:16;;;;;;;2.82;2.62;;;;;;;26.87;41.52;100438.92;448542;118;922727;-74
2022/08/14 01:45:20;;;;;;;4.32;2.92;;;;;;;26.86;41.45;100437.27;448249;118;922635;-75
2022/08/14 01:46:29;;;;;;;2.84;2.49;;;;;;;26.85;41.50;100433.65;448295;118;922684;-75
2022/08/14 01:47:34;;;;;;;4.53;2.90;;;;;;;26.85;41.47;100436.45;447870;118;922625;-75
2022/08/14 01:48:43;;;;;;;4.53;2.88;;;;;;;26.85;41.49;100441.25;448529;118;922688;-75
2022/08/14 01:49:44;;;;;;;3.75;3.43;;;;;;;26.84;41.46;100437.63;448420;118;922639;-75
2022/08/14 01:50:50;;;;;;;4.14;3.18;;;;;;;26.84;41.41;100436.80;445852;118;922695;-74
2022/08/14 01:51:55;;;;;;;3.42;2.81;;;;;;;26.83;41.41;100435.97;448610;118;923060;-73
2022/08/14 01:52:58;;;;;;;3.61;2.77;;;;;;;26.84;41.38;100439.59;448457;118;930555;-74
2022/08/14 01:54:09;;;;;;;5.04;3.24;;;;;;;26.84;41.34;100440.42;448517;118;922656;-74
2022/08/14 01:55:14;;;;;;;3.78;2.99;;;;;;;26.84;41.32;100436.80;448192;118;922663;-75
2022/08/14 01:56:19;;;;;;;3.84;2.59;;;;;;;26.82;41.31;100445.51;448562;118;923324;-74
2022/08/14 01:57:22;;;;;;;3.01;2.57;;;;;;;26.82;41.24;100439.91;448601;118;923214;-73
2022/08/14 01:58:28;;;;;;;4.32;2.56;;;;;;;26.81;41.24;100441.06;448572;118;922692;-73
2022/08/14 01:59:33;;;;;;;6.14;2.94;;;;;;;26.82;41.23;100441.88;448408;118;930541;-73
2022/08/14 02:00:39;;;;;;;3.80;3.13;;;;;;;26.81;41.24;100435.46;448291;118;922674;-73
2022/08/14 02:01:43;;;;;;;5.05;3.23;;;;;;;26.80;41.21;100439.41;448592;118;922670;-74
2022/08/14 02:02:48;;;;;;;3.30;2.62;;;;;;;26.81;41.19;100443.03;445781;118;923111;-74
2022/08/14 02:03:53;;;;;;;5.12;2.77;;;;;;;26.79;41.12;100445.34;448332;118;922719;-74
2022/08/14 02:04:59;;;;;;;3.94;3.24;;;;;;;26.78;41.13;100441.72;448243;118;922827;-74
2022/08/14 02:06:03;;;;;;;3.47;3.15;;;;;;;26.78;41.10;100446.49;447816;118;922647;-74
2022/08/14 02:07:09;;;;;;;3.02;2.78;;;;;;;26.77;41.06;100448.47;445204;118;922764;-73
2022/08/14 02:08:13;;;;;;;6.16;3.13;;;;;;;26.76;41.07;100446.81;447305;118;922724;-74
2022/08/14 02:09:20;;;;;;;3.36;2.58;;;;;;;26.76;41.06;100446.81;447088;118;922653;-74
2022/08/14 02:10:27;;;;;;;6.09;2.94;;;;;;;26.76;41.06;100444.02;447842;118;922980;-75
2022/08/14 02:11:33;;;;;;;3.75;2.82;;;;;;;26.75;41.05;100445.16;447759;118;923134;-74
2022/08/14 02:12:36;;;;;;;3.22;2.84;;;;;;;26.75;41.04;100442.36;447854;118;922705;-74
2022/08/14 02:13:39;;;;;;;2.78;2.45;;;;;;;26.75;41.00;100444.33;447986;118;922728;-74
2022/08/14 02:14:46;;;;;;;6.00;3.22;;;;;;;26.74;41.00;100443.50;447769;118;930330;-73
2022/08/14 02:15:51;;;;;;;3.38;2.61;;;;;;;26.74;40.96;100442.70;447947;118;922694;-73
2022/08/14 02:16:56;;;;;;;3.14;2.86;;;;;;;26.74;40.91;100443.50;448681;118;922835;-74
2022/08/14 02:18:00;;;;;;;3.88;2.65;;;;;;;26.75;40.90;100449.92;448554;118;922736;-74
2022/08/14 02:19:09;;;;;;;3.37;2.93;;;;;;;26.74;40.87;100453.90;448558;118;930498;-74
2022/08/14 02:20:12;;;;;;;7.39;3.17;;;;;;;26.74;40.84;100449.09;448523;118;922676;-74
2022/08/14 02:21:17;;;;;;;2.84;2.59;;;;;;;26.74;40.79;100456.69;448565;118;922713;-74
2022/08/14 02:22:21;;;;;;;8.49;3.21;;;;;;;26.74;40.83;100446.30;448463;118;923250;-74
2022/08/14 02:23:26;;;;;;;3.91;2.51;;;;;;;26.73;40.74;100443.85;447362;118;922728;-74
2022/08/14 02:24:32;;;;;;;3.76;2.94;;;;;;;26.72;40.72;100445.83;447642;118;922781;-74
2022/08/14 02:25:37;;;;;;;3.97;2.91;;;;;;;26.72;40.74;100450.59;445853;118;922788;-73
2022/08/14 02:26:48;;;;;;;3.48;2.71;;;;;;;26.72;40.73;100454.22;448459;118;923343;-75
2022/08/14 02:27:50;;;;;;;3.19;2.53;;;;;;;26.71;40.70;100451.73;448052;118;922731;-73
2022/08/14 02:29:01;;;;;;;4.13;3.08;;;;;;;26.69;40.70;100457.64;445857;118;922656;-74
2022/08/14 02:30:07;;;;;;;4.27;3.14;;;;;;;26.69;40.74;100454.84;453129;116;922740;-74
2022/08/14 02:31:11;;;;;;;4.62;3.18;;;;;;;26.68;40.71;100458.82;450398;116;923437;-74
2022/08/14 02:32:17;;;;;;;4.04;2.73;;;;;;;26.66;40.71;100461.11;448521;118;922860;-74
2022/08/14 02:33:22;;;;;;;4.02;3.33;;;;;;;26.65;40.74;100465.05;437910;120;922740;-74
2022/08/14 02:34:29;;;;;;;3.86;2.81;;;;;;;26.65;40.72;100465.05;440823;118;922731;-74
2022/08/14 02:35:33;;;;;;;3.94;2.91;;;;;;;26.64;40.73;100463.39;448521;118;922689;-73
2022/08/14 02:36:40;;;;;;;3.24;2.86;;;;;;;26.64;40.75;100466.19;448454;118;922827;-74
2022/08/14 02:37:46;;;;;;;2.77;2.34;;;;;;;26.63;40.75;100466.54;445879;118;922594;-74
2022/08/14 02:38:51;;;;;;;3.94;2.92;;;;;;;26.62;40.78;100462.91;448518;118;923151;-74
2022/08/14 02:39:54;;;;;;;3.19;2.86;;;;;;;26.62;40.75;100459.29;448729;118;922591;-74
2022/08/14 02:40:58;;;;;;;3.49;3.10;;;;;;;26.60;40.75;100467.99;450573;116;922617;-74
2022/08/14 02:42:01;;;;;;;4.14;3.22;;;;;;;26.59;40.78;100466.34;456372;116;930533;-75
2022/08/14 02:43:06;;;;;;;5.36;2.88;;;;;;;26.58;40.77;100462.72;456263;116;930508;-74
2022/08/14 02:44:11;;;;;;;3.24;2.92;;;;;;;26.57;40.83;100463.86;456461;116;922620;-74
2022/08/14 02:45:14;;;;;;;5.19;2.92;;;;;;;26.56;40.84;100456.64;456488;116;922845;-74
2022/08/14 02:46:21;;;;;;;5.69;3.27;;;;;;;26.55;40.88;100460.58;456248;116;930610;-74
2022/08/14 02:47:27;;;;;;;3.14;2.91;;;;;;;26.55;40.86;100468.14;455157;116;922900;-74
2022/08/14 02:48:35;;;;;;;4.43;2.78;;;;;;;26.54;40.93;100469.29;456336;116;923060;-74
2022/08/14 02:49:38;;;;;;;5.21;2.78;;;;;;;26.52;40.94;100455.62;453622;116;922725;-74
2022/08/14 02:50:43;;;;;;;3.36;2.98;;;;;;;26.52;40.95;100466.81;456159;116;922664;-75
2022/08/14 02:51:48;;;;;;;3.40;2.83;;;;;;;26.50;40.99;100469.12;455543;116;922737;-74
2022/08/14 02:52:53;;;;;;;3.62;2.58;;;;;;;26.49;41.03;100459.08;456398;116;922659;-74
2022/08/14 02:53:58;;;;;;;3.69;3.06;;;;;;;26.49;41.05;100464.67;455298;116;923102;-74
2022/08/14 02:55:04;;;;;;;5.03;3.31;;;;;;;26.48;41.05;100462.19;456422;116;922637;-73
2022/08/14 02:56:14;;;;;;;4.76;3.19;;;;;;;26.47;41.08;100474.52;456332;116;922968;-74
2022/08/14 02:57:18;;;;;;;4.82;2.99;;;;;;;26.47;41.16;100463.33;452779;116;922650;-74
2022/08/14 02:58:24;;;;;;;5.02;2.76;;;;;;;26.46;41.13;100468.09;452329;116;922609;-74
2022/08/14 02:59:31;;;;;;;3.64;2.91;;;;;;;26.45;41.15;100465.65;454699;116;922688;-74
2022/08/14 03:00:36;;;;;;;3.57;3.27;;;;;;;26.44;41.16;100464.82;455289;116;922654;-75
2022/08/14 03:01:41;;;;;;;3.81;3.10;;;;;;;26.45;41.17;100471.24;455155;116;922957;-74
2022/08/14 03:02:47;;;;;;;3.59;3.24;;;;;;;26.44;41.18;100464.82;454355;116;923323;-74
2022/08/14 03:03:51;;;;;;;3.78;2.93;;;;;;;26.44;41.19;100461.20;453920;116;922904;-74
2022/08/14 03:04:54;;;;;;;5.87;2.94;;;;;;;26.43;41.18;100463.17;454626;116;922627;-74
2022/08/14 03:05:58;;;;;;;4.59;2.73;;;;;;;26.44;41.22;100466.80;447694;118;922697;-74
2022/08/14 03:07:03;;;;;;;4.54;2.72;;;;;;;26.45;41.23;100457.27;447463;118;923389;-75
2022/08/14 03:08:12;;;;;;;3.98;3.43;;;;;;;26.43;41.24;100467.94;447219;118;922660;-74
2022/08/14 03:09:17;;;;;;;6.09;3.09;;;;;;;26.43;41.24;100460.37;447431;118;923008;-75
2022/08/14 03:10:22;;;;;;;4.75;2.61;;;;;;;26.43;41.24;100460.37;447606;118;922631;-72
2022/08/14 03:11:27;;;;;;;3.78;3.22;;;;;;;26.43;41.29;100463.17;446449;118;922748;-74
2022/08/14 03:12:33;;;;;;;4.23;2.92;;;;;;;26.42;41.29;100461.52;446679;118;922644;-75
2022/08/14 03:13:40;;;;;;;5.31;2.67;;;;;;;26.42;41.29;100463.48;447594;118;922710;-75
2022/08/14 03:14:48;;;;;;;3.77;2.94;;;;;;;26.42;41.29;100467.11;447499;118;922686;-73
2022/08/14 03:15:52;;;;;;;4.36;2.87;;;;;;;26.41;41.33;100464.66;447430;118;922715;-74
2022/08/14 03:16:57;;;;;;;3.38;2.63;;;;;;;26.42;41.26;100463.48;447432;118;922753;-74
2022/08/14 03:18:01;;;;;;;4.27;3.05;;;;;;;26.42;41.27;100460.69;447654;118;922680;-74
2022/08/14 03:19:06;;;;;;;3.20;2.82;;;;;;;26.41;41.29;100465.45;447602;118;922602;-74
2022/08/14 03:20:10;;;;;;;3.91;2.72;;;;;;;26.42;41.33;100472.70;447532;118;923062;-74
2022/08/14 03:21:17;;;;;;;2.78;2.58;;;;;;;26.42;41.38;100460.69;447518;118;925426;-74
2022/08/14 03:22:21;;;;;;;3.06;2.41;;;;;;;26.40;41.37;100466.63;447480;118;922666;-73
2022/08/14 03:23:24;;;;;;;2.82;2.61;;;;;;;26.41;41.38;100464.66;447616;118;922923;-74
2022/08/14 03:24:28;;;;;;;4.44;2.67;;;;;;;26.42;41.43;100466.28;447619;118;922999;-74
2022/08/14 03:25:32;;;;;;;3.89;2.79;;;;;;;26.42;41.43;100466.28;447625;118;930975;-74
2022/08/14 03:26:38;;;;;;;3.56;2.62;;;;;;;26.41;41.40;100468.25;447433;118;922630;-74
2022/08/14 03:27:42;;;;;;;3.97;2.31;;;;;;;26.43;41.41;100470.73;447503;118;922722;-74
2022/08/14 03:28:49;;;;;;;7.83;2.78;;;;;;;26.44;41.39;100463.99;444796;118;922637;-73
2022/08/14 03:29:53;;;;;;;2.69;2.47;;;;;;;26.44;41.36;100462.03;451061;116;922920;-75
2022/08/14 03:30:57;;;;;;;3.04;2.54;;;;;;;26.45;41.42;100457.27;450662;116;922855;-73
2022/08/14 03:32:03;;;;;;;5.12;2.66;;;;;;;26.47;41.36;100464.16;447472;118;922723;-73
2022/08/14 03:33:09;;;;;;;4.96;3.04;;;;;;;26.48;41.39;100456.60;447534;118;922876;-73
2022/08/14 03:34:13;;;;;;;4.04;2.63;;;;;;;26.49;41.36;100467.47;447581;116;922686;-73
2022/08/14 03:35:18;;;;;;;4.07;2.55;;;;;;;26.50;41.37;100460.73;446451;118;922727;-73
2022/08/14 03:36:24;;;;;;;4.08;2.61;;;;;;;26.52;41.36;100460.39;446552;118;922902;-74
2022/08/14 03:37:29;;;;;;;5.45;2.93;;;;;;;26.52;41.34;100465.98;445224;116;922739;-74
2022/08/14 03:38:41;;;;;;;3.23;2.79;;;;;;;26.53;41.32;100460.07;441678;119;922724;-74
2022/08/14 03:39:41;;;;;;;3.63;2.54;;;;;;;26.54;41.31;100461.73;441374;119;922784;-74
2022/08/14 03:40:46;;;;;;;3.81;2.73;;;;;;;26.56;41.32;100461.41;443711;119;922603;-74
2022/08/14 03:41:51;;;;;;;2.99;2.66;;;;;;;26.56;41.32;100453.84;444001;119;922617;-74
2022/08/14 03:42:55;;;;;;;2.85;2.65;;;;;;;26.57;41.27;100457.47;443864;119;922703;-74
2022/08/14 03:44:01;;;;;;;3.57;2.61;;;;;;;26.59;41.30;100455.16;444033;119;923102;-73
2022/08/14 03:45:06;;;;;;;3.42;2.42;;;;;;;26.61;41.29;100454.84;443538;119;922770;-73
2022/08/14 03:46:12;;;;;;;5.16;2.70;;;;;;;26.62;41.28;100456.49;441692;119;922751;-74
2022/08/14 03:47:18;;;;;;;4.69;2.83;;;;;;;26.62;41.19;100453.70;441620;119;922668;-73
2022/08/14 03:48:21;;;;;;;2.83;2.63;;;;;;;26.63;41.12;100453.34;444007;119;922688;-74
2022/08/14 03:49:26;;;;;;;2.70;2.17;;;;;;;26.64;41.19;100460.59;443164;119;923347;-74
2022/08/14 03:50:33;;;;;;;5.38;2.35;;;;;;;26.65;41.18;100451.06;443858;119;922636;-74
2022/08/14 03:51:37;;;;;;;4.27;2.50;;;;;;;26.67;41.08;100453.54;443924;119;922701;-74
2022/08/14 03:52:44;;;;;;;4.16;2.64;;;;;;;26.67;41.02;100454.37;443963;119;922805;-73
2022/08/14 03:53:50;;;;;;;3.23;2.59;;;;;;;26.68;41.07;100458.82;443616;119;922694;-73
2022/08/14 03:54:53;;;;;;;3.65;2.50;;;;;;;26.69;41.04;100451.22;443829;119;922726;-73
2022/08/14 03:55:57;;;;;;;2.58;2.34;;;;;;;26.71;41.01;100454.53;444027;119;923144;-74
2022/08/14 03:57:02;;;;;;;3.74;2.57;;;;;;;26.71;41.00;100443.34;443760;117;922717;-75
2022/08/14 03:58:06;;;;;;;4.42;3.22;;;;;;;26.73;40.97;100452.24;451082;117;922661;-73
2022/08/14 03:59:12;;;;;;;3.67;3.00;;;;;;;26.74;40.88;100445.50;446469;118;922681;-74
2022/08/14 04:00:17;;;;;;;7.08;2.62;;;;;;;26.74;40.85;100456.69;446018;118;923012;-74
2022/08/14 04:01:24;;;;;;;2.94;2.73;;;;;;;26.74;40.79;100446.30;444060;118;922739;-74
2022/08/14 04:02:29;;;;;;;4.41;2.01;;;;;;;26.76;40.79;100458.00;446032;118;922725;-73
2022/08/14 04:03:35;;;;;;;3.99;2.29;;;;;;;26.76;40.74;100463.59;445759;118;922797;-73
2022/08/14 04:04:43;;;;;;;4.92;2.87;;;;;;;26.78;40.72;100464.10;446430;118;922759;-73
2022/08/14 04:05:45;;;;;;;2.81;2.47;;;;;;;26.80;40.71;100456.19;439254;118;922756;-74
2022/08/14 04:06:50;;;;;;;3.03;2.36;;;;;;;26.82;40.74;100448.31;442728;119;923052;-74
2022/08/14 04:07:55;;;;;;;3.04;2.67;;;;;;;26.84;40.73;100457.20;442896;119;922631;-74
2022/08/14 04:08:59;;;;;;;2.67;2.47;;;;;;;26.86;40.76;100457.69;442769;119;922909;-74
2022/08/14 04:10:04;;;;;;;3.43;2.24;;;;;;;26.86;40.71;100454.89;442947;119;923100;-75
2022/08/14 04:11:08;;;;;;;4.84;2.84;;;;;;;26.88;40.75;100452.62;442806;119;930336;-74
2022/08/14 04:12:12;;;;;;;3.31;2.73;;;;;;;26.91;40.65;100453.94;442721;119;923360;-74
2022/08/14 04:13:17;;;;;;;3.72;2.65;;;;;;;26.92;40.61;100456.41;442949;119;923207;-74
2022/08/14 04:14:20;;;;;;;3.34;2.46;;;;;;;26.93;40.62;100443.25;442901;119;923243;-74
2022/08/14 04:15:25;;;;;;;8.95;3.01;;;;;;;26.95;40.58;100452.98;442789;119;922956;-73
2022/08/14 04:16:28;;;;;;;4.18;2.59;;;;;;;26.97;40.52;100452.62;442909;119;922703;-74
2022/08/14 04:17:33;;;;;;;3.18;2.61;;;;;;;27.00;40.50;100453.97;442706;119;930546;-74
2022/08/14 04:18:42;;;;;;;3.90;2.66;;;;;;;27.01;40.41;100458.41;442956;119;922657;-74
2022/08/14 04:19:46;;;;;;;3.17;2.61;;;;;;;27.03;40.41;100454.13;442782;119;922800;-74
2022/08/14 04:20:50;;;;;;;5.16;2.82;;;;;;;27.05;40.34;100451.00;442755;119;922677;-75
2022/08/14 04:21:55;;;;;;;3.67;2.66;;;;;;;27.07;40.28;100462.70;442494;119;922736;-74
2022/08/14 04:23:00;;;;;;;4.96;3.13;;;;;;;27.09;40.21;100463.19;442037;119;922753;-75
2022/08/14 04:24:04;;;;;;;3.37;2.64;;;;;;;27.09;40.13;100458.41;442960;119;922886;-75
2022/08/14 04:25:09;;;;;;;3.63;2.68;;;;;;;27.12;40.10;100459.75;442785;119;922665;-74
2022/08/14 04:26:17;;;;;;;5.63;3.06;;;;;;;27.12;40.11;100460.57;442773;119;922675;-75
2022/08/14 04:27:22;;;;;;;2.79;2.59;;;;;;;27.15;40.10;100461.88;445170;117;922818;-74
2022/08/14 04:28:25;;;;;;;5.09;3.17;;;;;;;27.14;40.04;100461.05;442956;119;922661;-74
2022/08/14 04:29:30;;;;;;;7.42;3.08;;;;;;;27.14;39.99;100463.02;441948;115;922545;-74
2022/08/14 04:30:37;;;;;;;3.42;2.93;;;;;;;27.14;39.93;100463.02;451574;117;922634;-73
2022/08/14 04:31:42;;;;;;;5.79;3.19;;;;;;;27.15;39.92;100467.47;450020;117;930952;-74
2022/08/14 04:32:47;;;;;;;3.72;2.81;;;;;;;27.15;39.92;100467.47;447786;117;922864;-74
2022/08/14 04:33:53;;;;;;;4.44;2.93;;;;;;;27.15;39.88;100473.07;447899;117;922693;-74
2022/08/14 04:34:57;;;;;;;3.39;2.59;;;;;;;27.15;39.88;100467.47;442587;120;922676;-74
2022/08/14 04:36:01;;;;;;;4.06;2.62;;;;;;;27.15;39.82;100468.30;450467;117;922550;-74
2022/08/14 04:43:56;;;;;;;3.43;2.72;;;;;;;27.14;39.72;100460.22;450331;117;922721;-73
2022/08/14 04:44:59;;;;;;;11.62;2.64;;;;;;;27.13;39.67;100453.80;442575;120;922718;-74
2022/08/14 04:46:06;;;;;;;4.15;2.87;;;;;;;27.13;39.72;100459.39;450342;117;922726;-73
2022/08/14 04:48:33;;;;;;;4.08;2.96;;;;;;;27.13;39.75;100459.39;450321;117;922687;-73
2022/08/14 04:49:41;;;;;;;4.31;3.27;;;;;;;27.13;39.77;100455.77;441127;120;922736;-73
2022/08/14 04:50:48;;;;;;;4.38;2.54;;;;;;;27.12;39.76;100462.55;456397;115;922733;-73
2022/08/14 04:51:53;;;;;;;3.25;2.46;;;;;;;27.12;39.76;100460.57;458527;115;922792;-74
2022/08/14 04:52:58;;;;;;;3.97;3.05;;;;;;;27.13;39.79;100467.80;445581;119;922676;-74
2022/08/14 04:54:01;;;;;;;3.96;2.81;;;;;;;27.13;39.81;100458.56;442556;120;922819;-74
2022/08/14 04:55:06;;;;;;;3.73;2.81;;;;;;;27.13;39.77;100461.36;450403;117;922730;-74
2022/08/14 04:56:12;;;;;;;3.05;2.78;;;;;;;27.12;39.75;100459.75;442111;120;923127;-74
2022/08/14 04:57:17;;;;;;;4.15;2.83;;;;;;;27.12;39.75;100457.77;456474;115;922916;-74
2022/08/14 04:58:25;;;;;;;3.03;2.52;;;;;;;27.13;39.67;100458.56;458568;115;922920;-73
2022/08/14 04:59:30;;;;;;;3.50;2.84;;;;;;;27.13;39.64;100464.99;458218;115;930515;-74
2022/08/14 05:00:33;;;;;;;3.38;2.46;;;;;;;27.13;39.62;100456.59;458725;115;922689;-74
2022/08/14 05:01:37;;;;;;;3.09;2.77;;;;;;;27.14;39.64;100466.64;458677;115;922749;-74
2022/08/14 05:02:42;;;;;;;4.63;2.52;;;;;;;27.16;39.55;100471.92;458472;115;922989;-74
2022/08/14 05:03:48;;;;;;;5.08;2.85;;;;;;;27.15;39.53;100465.50;449895;118;922647;-73
2022/08/14 05:04:53;;;;;;;5.38;2.90;;;;;;;27.16;39.51;100463.53;441653;120;922751;-74
2022/08/14 05:06:00;;;;;;;3.97;2.62;;;;;;;27.16;39.53;100464.35;458230;115;922664;-73
2022/08/14 05:07:03;;;;;;;5.79;2.72;;;;;;;27.17;39.52;100463.20;458464;115;922724;-73
2022/08/14 05:08:10;;;;;;;4.42;2.76;;;;;;;27.18;39.50;100467.63;458648;115;922786;-74
2022/08/14 05:09:15;;;;;;;4.86;3.09;;;;;;;27.20;39.42;100461.70;456017;115;922814;-73
2022/08/14 05:10:23;;;;;;;4.27;2.51;;;;;;;27.21;39.39;100461.39;458462;115;922678;-73
2022/08/14 05:11:32;;;;;;;3.77;2.98;;;;;;;27.23;39.32;100461.06;458492;115;922732;-74